Terminal Aerodrome Forecast
Issued by NWS

Home | Current Version | Previous Version | Text Only | Print | Product List | Glossary On
Versions: 1 2 3 4 5 6 7 8 9 10 11 12
000
FTUS42 KTBW 172330
TAFPIE
TAF
KPIE 172330Z 1800/1824 35007KT P6SM VCTS SCT035CB BKN060
     FM180200 06004KT P6SM FEW030 BKN250
     FM181400 03005KT P6SM FEW025 BKN250
     FM181600 34007KT P6SM VCTS FEW030CB SCT250=

USA.gov is the U.S. government's official web portal to all federal, state and local government web resources and services.